ELLX/LUX METAR and TAF weather

Enter ICAO airport designator
Station Type Date Time Source
ELLX METAR 2020/07/08 00:20 UTC NOAA

ELLX 080020Z AUTO 26004KT 9999 OVC054/// 14/08 Q1018 NOSIG


Station Type Date Time Source
ELLX Decoded METAR 2020/07/08 00:20 UTC NOAA

Luxembourg / Luxembourg, Luxembourg (ELLX) 49-37N 006-13E 379M
Jul 07, 2020 - 08:20 PM EDT / 2020.07.08 0020 UTC
Wind: from the W (260 degrees) at 5 MPH (4 KT):0
Visibility: greater than 7 mile(s):0
Sky conditions: overcast
Temperature: 57 F (14 C)
Dew Point: 46 F (8 C)
Relative Humidity: 67%
Pressure (altimeter): 30.06 in. Hg (1018 hPa)
ob: ELLX 080020Z AUTO 26004KT 9999 OVC054/// 14/08 Q1018 NOSIG
cycle: 0

Station Type Date Time Source
ELLX TAF 2020/07/07 18:27 UTC NOAA

TAF ELLX 071700Z 0718/0824 26008KT CAVOK
TEMPO 0812/0820 -RA FEW007 BKN013

Example: see airport list